sensor_id;sensor_type;location;lat;lon;timestamp;pressure;altitude;pressure_sealevel;temperature;humidity
3254;BME280;1639;42.804;23.342;2023-12-28T00:00:24;75038.94;;;-148.52;94.90
3254;BME280;1639;42.804;23.342;2023-12-28T00:02:49;75043.09;;;-148.52;94.58
3254;BME280;1639;42.804;23.342;2023-12-28T00:05:15;75055.50;;;-148.52;93.77
3254;BME280;1639;42.804;23.342;2023-12-28T00:07:40;75059.63;;;-148.52;93.13
3254;BME280;1639;42.804;23.342;2023-12-28T00:10:06;75061.72;;;-148.52;92.96
3254;BME280;1639;42.804;23.342;2023-12-28T00:12:32;75063.78;;;-148.52;92.47
3254;BME280;1639;42.804;23.342;2023-12-28T00:14:57;75076.19;;;-148.52;91.98
3254;BME280;1639;42.804;23.342;2023-12-28T00:17:22;75098.97;;;-148.52;90.53
3254;BME280;1639;42.804;23.342;2023-12-28T00:19:48;75142.41;;;-148.52;89.43
3254;BME280;1639;42.804;23.342;2023-12-28T00:22:13;75169.31;;;-148.52;89.00
3254;BME280;1639;42.804;23.342;2023-12-28T00:24:39;75194.16;;;-148.52;88.97
3254;BME280;1639;42.804;23.342;2023-12-28T00:27:04;75202.44;;;-148.52;89.99
3254;BME280;1639;42.804;23.342;2023-12-28T00:29:29;75200.34;;;-148.52;90.82
3254;BME280;1639;42.804;23.342;2023-12-28T00:31:55;75200.34;;;-148.52;92.23
3254;BME280;1639;42.804;23.342;2023-12-28T00:34:21;75206.56;;;-148.52;93.52
3254;BME280;1639;42.804;23.342;2023-12-28T00:36:46;75196.22;;;-148.52;94.83
3254;BME280;1639;42.804;23.342;2023-12-28T00:39:11;75190.00;;;-148.52;95.58
3254;BME280;1639;42.804;23.342;2023-12-28T00:41:37;75192.06;;;-148.52;95.84
3254;BME280;1639;42.804;23.342;2023-12-28T00:44:02;75200.34;;;-148.52;95.54
3254;BME280;1639;42.804;23.342;2023-12-28T00:46:28;75241.75;;;-148.52;95.40
3254;BME280;1639;42.804;23.342;2023-12-28T00:48:53;75250.03;;;-148.52;96.94
3254;BME280;1639;42.804;23.342;2023-12-28T00:51:20;75239.69;;;-148.52;96.76
3254;BME280;1639;42.804;23.342;2023-12-28T00:53:46;75231.41;;;-148.52;96.74
3254;BME280;1639;42.804;23.342;2023-12-28T00:56:11;75214.84;;;-148.52;96.88
3254;BME280;1639;42.804;23.342;2023-12-28T00:58:40;75202.44;;;-148.52;96.08
3254;BME280;1639;42.804;23.342;2023-12-28T01:01:05;75208.63;;;-148.52;95.02
3254;BME280;1639;42.804;23.342;2023-12-28T01:03:31;75200.34;;;-148.52;93.48
3254;BME280;1639;42.804;23.342;2023-12-28T01:05:56;75200.34;;;-148.52;92.86
3254;BME280;1639;42.804;23.342;2023-12-28T01:08:22;75194.16;;;-148.52;92.23
3254;BME280;1639;42.804;23.342;2023-12-28T01:10:47;75194.16;;;-148.52;91.70
3254;BME280;1639;42.804;23.342;2023-12-28T01:13:12;75194.16;;;-148.52;90.92
3254;BME280;1639;42.804;23.342;2023-12-28T01:15:38;75200.34;;;-148.52;91.08
3254;BME280;1639;42.804;23.342;2023-12-28T01:18:03;75192.06;;;-148.52;91.59
3254;BME280;1639;42.804;23.342;2023-12-28T01:20:29;75185.88;;;-148.52;91.71
3254;BME280;1639;42.804;23.342;2023-12-28T01:22:54;75181.72;;;-148.52;91.42
3254;BME280;1639;42.804;23.342;2023-12-28T01:25:20;75173.47;;;-148.52;91.38
3254;BME280;1639;42.804;23.342;2023-12-28T01:27:45;75177.59;;;-148.52;91.04
3254;BME280;1639;42.804;23.342;2023-12-28T01:30:11;75185.88;;;-148.52;90.83
3254;BME280;1639;42.804;23.342;2023-12-28T01:32:36;75183.81;;;-148.52;90.22
3254;BME280;1639;42.804;23.342;2023-12-28T01:35:01;75179.66;;;-148.52;90.05
3254;BME280;1639;42.804;23.342;2023-12-28T01:37:27;75169.31;;;-148.52;89.19
3254;BME280;1639;42.804;23.342;2023-12-28T01:39:55;75181.72;;;-148.52;88.98
3254;BME280;1639;42.804;23.342;2023-12-28T01:42:21;75179.66;;;-148.52;89.24
3254;BME280;1639;42.804;23.342;2023-12-28T01:44:46;75185.88;;;-148.52;88.57
3254;BME280;1639;42.804;23.342;2023-12-28T01:47:12;75185.88;;;-148.52;88.59
3254;BME280;1639;42.804;23.342;2023-12-28T01:49:37;75185.88;;;-148.52;88.15
3254;BME280;1639;42.804;23.342;2023-12-28T01:52:04;75177.59;;;-148.52;87.28
3254;BME280;1639;42.804;23.342;2023-12-28T01:54:30;75181.72;;;-148.52;87.00
3254;BME280;1639;42.804;23.342;2023-12-28T01:56:55;75192.06;;;-148.52;86.52
3254;BME280;1639;42.804;23.342;2023-12-28T01:59:21;75190.00;;;-148.52;86.35
3254;BME280;1639;42.804;23.342;2023-12-28T02:01:47;75202.44;;;-148.52;85.94
3254;BME280;1639;42.804;23.342;2023-12-28T02:04:14;75202.44;;;-148.52;85.99
3254;BME280;1639;42.804;23.342;2023-12-28T02:06:39;75214.84;;;-148.52;86.15
3254;BME280;1639;42.804;23.342;2023-12-28T02:09:05;75208.63;;;-148.52;86.46
3254;BME280;1639;42.804;23.342;2023-12-28T02:11:30;75206.56;;;-148.52;86.59
3254;BME280;1639;42.804;23.342;2023-12-28T02:13:56;75204.50;;;-148.52;86.82
3254;BME280;1639;42.804;23.342;2023-12-28T02:16:40;75202.44;;;-148.52;86.46
3254;BME280;1639;42.804;23.342;2023-12-28T02:19:23;75214.84;;;-148.52;85.72
3254;BME280;1639;42.804;23.342;2023-12-28T02:21:52;75227.25;;;-148.52;86.20
3254;BME280;1639;42.804;23.342;2023-12-28T02:24:17;75229.31;;;-148.52;86.50
3254;BME280;1639;42.804;23.342;2023-12-28T02:26:42;75231.41;;;-148.52;87.65
3254;BME280;1639;42.804;23.342;2023-12-28T02:29:08;75235.53;;;-148.52;88.32
3254;BME280;1639;42.804;23.342;2023-12-28T02:31:37;75235.53;;;-148.52;88.69
3254;BME280;1639;42.804;23.342;2023-12-28T02:34:08;75241.75;;;-148.52;88.57
3254;BME280;1639;42.804;23.342;2023-12-28T02:36:39;75243.81;;;-148.52;89.57
3254;BME280;1639;42.804;23.342;2023-12-28T02:39:06;75235.53;;;-148.52;88.95
3254;BME280;1639;42.804;23.342;2023-12-28T02:41:34;75231.41;;;-148.52;88.51
3254;BME280;1639;42.804;23.342;2023-12-28T02:43:59;75223.13;;;-148.52;88.04
3254;BME280;1639;42.804;23.342;2023-12-28T02:46:25;75235.53;;;-148.52;87.49
3254;BME280;1639;42.804;23.342;2023-12-28T02:48:50;75243.81;;;-148.52;87.91
3254;BME280;1639;42.804;23.342;2023-12-28T02:51:17;75235.53;;;-148.52;88.18
3254;BME280;1639;42.804;23.342;2023-12-28T02:53:43;75235.53;;;-148.52;88.18
3254;BME280;1639;42.804;23.342;2023-12-28T02:56:08;75243.81;;;-148.52;87.23
3254;BME280;1639;42.804;23.342;2023-12-28T02:58:34;75241.75;;;-148.52;87.52
3254;BME280;1639;42.804;23.342;2023-12-28T03:00:59;75235.53;;;-148.52;87.80
3254;BME280;1639;42.804;23.342;2023-12-28T03:03:24;75258.31;;;-148.52;87.43
3254;BME280;1639;42.804;23.342;2023-12-28T03:05:50;75274.84;;;-148.52;88.21
3254;BME280;1639;42.804;23.342;2023-12-28T03:08:15;75270.72;;;-148.52;88.81
3254;BME280;1639;42.804;23.342;2023-12-28T03:10:40;75276.91;;;-148.52;89.14
3254;BME280;1639;42.804;23.342;2023-12-28T03:13:06;75287.28;;;-148.52;89.03
3254;BME280;1639;42.804;23.342;2023-12-28T03:15:31;75297.63;;;-148.52;89.24
3254;BME280;1639;42.804;23.342;2023-12-28T03:17:56;75314.16;;;-148.52;90.30
3254;BME280;1639;42.804;23.342;2023-12-28T03:20:22;75312.09;;;-148.52;91.64
3254;BME280;1639;42.804;23.342;2023-12-28T03:22:47;75316.25;;;-148.52;92.31
3254;BME280;1639;42.804;23.342;2023-12-28T03:25:14;75316.25;;;-148.52;92.02
3254;BME280;1639;42.804;23.342;2023-12-28T03:27:39;75297.63;;;-148.52;97.57
3254;BME280;1639;42.804;23.342;2023-12-28T03:30:05;75283.13;;;-148.52;100.00
3254;BME280;1639;42.804;23.342;2023-12-28T03:32:30;75293.47;;;-148.52;100.00
3254;BME280;1639;42.804;23.342;2023-12-28T03:34:56;75279.00;;;-148.52;100.00
3254;BME280;1639;42.804;23.342;2023-12-28T03:37:21;75281.06;;;-148.52;100.00
3254;BME280;1639;42.804;23.342;2023-12-28T03:39:47;75281.06;;;-148.52;100.00
3254;BME280;1639;42.804;23.342;2023-12-28T03:42:13;75276.91;;;-148.52;100.00
3254;BME280;1639;42.804;23.342;2023-12-28T03:44:39;75285.19;;;-148.52;100.00
3254;BME280;1639;42.804;23.342;2023-12-28T03:47:05;75285.19;;;-148.52;100.00
3254;BME280;1639;42.804;23.342;2023-12-28T03:49:30;75285.19;;;-148.52;99.06
3254;BME280;1639;42.804;23.342;2023-12-28T03:51:56;75276.91;;;-148.52;96.60
3254;BME280;1639;42.804;23.342;2023-12-28T03:54:21;75281.06;;;-148.52;95.64
3254;BME280;1639;42.804;23.342;2023-12-28T03:56:47;75279.00;;;-148.52;94.63
3254;BME280;1639;42.804;23.342;2023-12-28T03:59:12;75287.28;;;-148.52;94.22
3254;BME280;1639;42.804;23.342;2023-12-28T04:01:40;75289.34;;;-148.52;93.97
3254;BME280;1639;42.804;23.342;2023-12-28T04:04:05;75287.28;;;-148.52;93.61
3254;BME280;1639;42.804;23.342;2023-12-28T04:06:31;75297.63;;;-148.52;93.37
3254;BME280;1639;42.804;23.342;2023-12-28T04:08:56;75301.75;;;-148.52;93.30
3254;BME280;1639;42.804;23.342;2023-12-28T04:11:21;75318.31;;;-148.52;93.24
3254;BME280;1639;42.804;23.342;2023-12-28T04:13:47;75326.59;;;-148.52;93.98
3254;BME280;1639;42.804;23.342;2023-12-28T04:16:13;75343.16;;;-148.52;94.39
3254;BME280;1639;42.804;23.342;2023-12-28T04:18:39;75361.78;;;-148.52;93.59
3254;BME280;1639;42.804;23.342;2023-12-28T04:21:08;75374.19;;;-148.52;94.44
3254;BME280;1639;42.804;23.342;2023-12-28T04:23:34;75390.75;;;-148.52;93.79
3254;BME280;1639;42.804;23.342;2023-12-28T04:25:59;75392.81;;;-148.52;93.61
3254;BME280;1639;42.804;23.342;2023-12-28T04:28:24;75392.81;;;-148.52;93.10
3254;BME280;1639;42.804;23.342;2023-12-28T04:30:50;75396.94;;;-148.52;92.77
3254;BME280;1639;42.804;23.342;2023-12-28T04:33:17;75392.81;;;-148.52;92.77
3254;BME280;1639;42.804;23.342;2023-12-28T04:35:44;75388.66;;;-148.52;93.04
3254;BME280;1639;42.804;23.342;2023-12-28T04:38:09;75399.03;;;-148.52;92.51
3254;BME280;1639;42.804;23.342;2023-12-28T04:40:34;75359.69;;;-148.52;96.74
3254;BME280;1639;42.804;23.342;2023-12-28T04:43:00;75326.59;;;-148.52;100.00
3254;BME280;1639;42.804;23.342;2023-12-28T04:45:25;75336.94;;;-148.52;100.00
3254;BME280;1639;42.804;23.342;2023-12-28T04:47:51;75367.97;;;-148.52;100.00
3254;BME280;1639;42.804;23.342;2023-12-28T04:50:16;75380.41;;;-148.52;100.00
3254;BME280;1639;42.804;23.342;2023-12-28T04:52:42;75405.22;;;-148.52;99.88
3254;BME280;1639;42.804;23.342;2023-12-28T04:55:07;75407.28;;;-148.52;99.94
3254;BME280;1639;42.804;23.342;2023-12-28T04:57:32;75403.16;;;-148.52;100.00
3254;BME280;1639;42.804;23.342;2023-12-28T04:59:58;75405.22;;;-148.52;100.00
3254;BME280;1639;42.804;23.342;2023-12-28T05:02:23;75396.94;;;-148.52;100.00
3254;BME280;1639;42.804;23.342;2023-12-28T05:04:48;75392.81;;;-148.52;100.00
3254;BME280;1639;42.804;23.342;2023-12-28T05:07:14;75380.41;;;-148.52;99.33
3254;BME280;1639;42.804;23.342;2023-12-28T05:09:39;75384.53;;;-148.52;98.53
3254;BME280;1639;42.804;23.342;2023-12-28T05:12:05;75386.59;;;-148.52;96.42
3254;BME280;1639;42.804;23.342;2023-12-28T05:14:30;75396.94;;;-148.52;94.98
3254;BME280;1639;42.804;23.342;2023-12-28T05:16:55;75399.03;;;-148.52;94.58
3254;BME280;1639;42.804;23.342;2023-12-28T05:19:21;75409.38;;;-148.52;93.96
3254;BME280;1639;42.804;23.342;2023-12-28T05:21:46;75417.66;;;-148.52;93.59
3254;BME280;1639;42.804;23.342;2023-12-28T05:24:12;75423.84;;;-148.52;92.68
3254;BME280;1639;42.804;23.342;2023-12-28T05:26:38;75436.28;;;-148.52;92.53
3254;BME280;1639;42.804;23.342;2023-12-28T05:29:03;75450.75;;;-148.52;93.10
3254;BME280;1639;42.804;23.342;2023-12-28T05:31:28;75471.44;;;-148.52;93.28
3254;BME280;1639;42.804;23.342;2023-12-28T05:33:54;75494.22;;;-148.52;93.57
3254;BME280;1639;42.804;23.342;2023-12-28T05:36:19;75521.13;;;-148.52;95.50
3254;BME280;1639;42.804;23.342;2023-12-28T05:38:45;75512.84;;;-148.52;96.51
3254;BME280;1639;42.804;23.342;2023-12-28T05:41:10;75500.41;;;-148.52;96.74
3254;BME280;1639;42.804;23.342;2023-12-28T05:43:37;75492.16;;;-148.52;97.11
3254;BME280;1639;42.804;23.342;2023-12-28T05:46:02;75471.44;;;-148.52;97.47
3254;BME280;1639;42.804;23.342;2023-12-28T05:48:28;75467.31;;;-148.52;97.55
3254;BME280;1639;42.804;23.342;2023-12-28T05:50:53;75459.03;;;-148.52;96.50
3254;BME280;1639;42.804;23.342;2023-12-28T05:53:19;75446.63;;;-148.52;95.82
3254;BME280;1639;42.804;23.342;2023-12-28T05:55:44;75444.53;;;-148.52;95.38
3254;BME280;1639;42.804;23.342;2023-12-28T05:58:10;75454.91;;;-148.52;94.76
3254;BME280;1639;42.804;23.342;2023-12-28T06:00:35;75444.53;;;-148.52;94.57
3254;BME280;1639;42.804;23.342;2023-12-28T06:03:04;75436.28;;;-148.52;94.00
3254;BME280;1639;42.804;23.342;2023-12-28T06:05:30;75432.13;;;-148.52;93.14
3254;BME280;1639;42.804;23.342;2023-12-28T06:07:55;75425.91;;;-148.52;92.28
3254;BME280;1639;42.804;23.342;2023-12-28T06:10:20;75425.91;;;-148.52;91.77
3254;BME280;1639;42.804;23.342;2023-12-28T06:12:46;75417.66;;;-148.52;91.37
3254;BME280;1639;42.804;23.342;2023-12-28T06:15:11;75411.44;;;-148.52;90.72
3254;BME280;1639;42.804;23.342;2023-12-28T06:17:37;75405.22;;;-148.52;90.69
3254;BME280;1639;42.804;23.342;2023-12-28T06:20:02;75415.56;;;-148.52;89.98
3254;BME280;1639;42.804;23.342;2023-12-28T06:22:28;75417.66;;;-148.52;89.59
3254;BME280;1639;42.804;23.342;2023-12-28T06:24:54;75413.50;;;-148.52;89.75
3254;BME280;1639;42.804;23.342;2023-12-28T06:27:20;75401.09;;;-148.52;89.14
3254;BME280;1639;42.804;23.342;2023-12-28T06:29:46;75403.16;;;-148.52;88.85
3254;BME280;1639;42.804;23.342;2023-12-28T06:32:11;75413.50;;;-148.52;88.75
3254;BME280;1639;42.804;23.342;2023-12-28T06:34:36;75423.84;;;-148.52;89.94
3254;BME280;1639;42.804;23.342;2023-12-28T06:37:02;75421.78;;;-148.52;90.53
3254;BME280;1639;42.804;23.342;2023-12-28T06:39:27;75411.44;;;-148.52;91.16
3254;BME280;1639;42.804;23.342;2023-12-28T06:41:53;75413.50;;;-148.52;91.48
3254;BME280;1639;42.804;23.342;2023-12-28T06:44:18;75413.50;;;-148.52;91.96
3254;BME280;1639;42.804;23.342;2023-12-28T06:46:43;75399.03;;;-148.52;92.86
3254;BME280;1639;42.804;23.342;2023-12-28T06:49:09;75386.59;;;-148.52;93.24
3254;BME280;1639;42.804;23.342;2023-12-28T06:51:34;75380.41;;;-148.52;96.61
3254;BME280;1639;42.804;23.342;2023-12-28T06:54:00;75367.97;;;-148.52;100.00
3254;BME280;1639;42.804;23.342;2023-12-28T06:56:25;75347.28;;;-148.52;100.00
3254;BME280;1639;42.804;23.342;2023-12-28T06:58:50;75328.66;;;-148.52;100.00
3254;BME280;1639;42.804;23.342;2023-12-28T07:01:16;75307.97;;;-148.52;100.00
3254;BME280;1639;42.804;23.342;2023-12-28T07:03:42;75276.91;;;-148.52;100.00
3254;BME280;1639;42.804;23.342;2023-12-28T07:06:07;75247.94;;;-148.52;96.82
3254;BME280;1639;42.804;23.342;2023-12-28T07:08:33;75218.97;;;-148.52;90.65
3254;BME280;1639;42.804;23.342;2023-12-28T07:10:59;75194.16;;;-148.52;88.10
3254;BME280;1639;42.804;23.342;2023-12-28T07:13:25;75173.47;;;-148.52;85.25
3254;BME280;1639;42.804;23.342;2023-12-28T07:15:51;75148.63;;;-148.52;82.97
3254;BME280;1639;42.804;23.342;2023-12-28T07:18:16;75119.66;;;-148.52;81.53
3254;BME280;1639;42.804;23.342;2023-12-28T07:20:41;75078.25;;;-148.52;79.42
3254;BME280;1639;42.804;23.342;2023-12-28T07:23:07;75018.25;;;-148.52;77.61
3254;BME280;1639;42.804;23.342;2023-12-28T07:25:34;74941.69;;;-148.52;74.75
3254;BME280;1639;42.804;23.342;2023-12-28T07:27:59;74871.34;;;-148.52;70.60
3254;BME280;1639;42.804;23.342;2023-12-28T07:30:24;74821.69;;;-148.52;68.23
3254;BME280;1639;42.804;23.342;2023-12-28T07:32:50;74778.22;;;-148.52;66.48
3254;BME280;1639;42.804;23.342;2023-12-28T07:35:15;74703.75;;;-148.52;64.43
3254;BME280;1639;42.804;23.342;2023-12-28T07:37:41;74672.69;;;-148.52;62.38
3254;BME280;1639;42.804;23.342;2023-12-28T07:40:06;74643.75;;;-148.52;61.33
3254;BME280;1639;42.804;23.342;2023-12-28T07:42:32;74635.47;;;-148.52;60.74
3254;BME280;1639;42.804;23.342;2023-12-28T07:44:58;74608.56;;;-148.52;60.02
3254;BME280;1639;42.804;23.342;2023-12-28T07:47:23;74581.66;;;-148.52;60.54
3254;BME280;1639;42.804;23.342;2023-12-28T07:49:48;74585.81;;;-148.52;60.36
3254;BME280;1639;42.804;23.342;2023-12-28T07:52:14;74610.63;;;-148.52;60.87
3254;BME280;1639;42.804;23.342;2023-12-28T07:54:39;74627.19;;;-148.52;61.37
3254;BME280;1639;42.804;23.342;2023-12-28T07:57:04;74674.78;;;-148.52;62.12
3254;BME280;1639;42.804;23.342;2023-12-28T07:59:30;74714.09;;;-148.52;62.61
3254;BME280;1639;42.804;23.342;2023-12-28T08:01:56;74753.41;;;-148.52;64.45
3254;BME280;1639;42.804;23.342;2023-12-28T08:04:21;74801.00;;;-148.52;65.28
3254;BME280;1639;42.804;23.342;2023-12-28T08:06:47;74852.72;;;-148.52;66.98
3254;BME280;1639;42.804;23.342;2023-12-28T08:09:12;74875.47;;;-148.52;68.53
3254;BME280;1639;42.804;23.342;2023-12-28T08:11:38;74910.66;;;-148.52;69.21
3254;BME280;1639;42.804;23.342;2023-12-28T08:14:03;74941.69;;;-148.52;70.60
3254;BME280;1639;42.804;23.342;2023-12-28T08:16:28;74952.03;;;-148.52;72.06
3254;BME280;1639;42.804;23.342;2023-12-28T08:18:54;74966.53;;;-148.52;73.16
3254;BME280;1639;42.804;23.342;2023-12-28T08:21:19;74972.72;;;-148.52;73.53
3254;BME280;1639;42.804;23.342;2023-12-28T08:23:45;74962.38;;;-148.52;74.12
3254;BME280;1639;42.804;23.342;2023-12-28T08:26:10;74952.03;;;-148.52;74.47
3254;BME280;1639;42.804;23.342;2023-12-28T08:28:36;74949.97;;;-148.52;74.48
3254;BME280;1639;42.804;23.342;2023-12-28T08:31:02;74972.72;;;-148.52;75.04
3254;BME280;1639;42.804;23.342;2023-12-28T08:33:28;74987.22;;;-148.52;76.03
3254;BME280;1639;42.804;23.342;2023-12-28T08:35:53;75009.97;;;-148.52;78.08
3254;BME280;1639;42.804;23.342;2023-12-28T08:38:19;75022.41;;;-148.52;79.55
3254;BME280;1639;42.804;23.342;2023-12-28T08:40:44;75032.75;;;-148.52;79.94
3254;BME280;1639;42.804;23.342;2023-12-28T08:43:10;75045.16;;;-148.52;81.42
3254;BME280;1639;42.804;23.342;2023-12-28T08:45:35;75038.94;;;-148.52;82.74
3254;BME280;1639;42.804;23.342;2023-12-28T08:48:01;75028.59;;;-148.52;83.26
3254;BME280;1639;42.804;23.342;2023-12-28T08:50:27;75036.88;;;-148.52;83.31
3254;BME280;1639;42.804;23.342;2023-12-28T08:52:52;75032.75;;;-148.52;83.50
3254;BME280;1639;42.804;23.342;2023-12-28T08:55:17;75020.31;;;-148.52;84.55
3254;BME280;1639;42.804;23.342;2023-12-28T08:57:43;75007.91;;;-148.52;84.67
3254;BME280;1639;42.804;23.342;2023-12-28T09:00:09;75007.91;;;-148.52;84.24
3254;BME280;1639;42.804;23.342;2023-12-28T09:02:35;74991.34;;;-148.52;84.35
3254;BME280;1639;42.804;23.342;2023-12-28T09:05:03;74966.53;;;-148.52;84.09
3254;BME280;1639;42.804;23.342;2023-12-28T09:07:29;74949.97;;;-148.52;83.54
3254;BME280;1639;42.804;23.342;2023-12-28T09:09:54;74937.56;;;-148.52;82.76
3254;BME280;1639;42.804;23.342;2023-12-28T09:12:20;74931.34;;;-148.52;82.18
3254;BME280;1639;42.804;23.342;2023-12-28T09:14:45;74937.56;;;-148.52;82.58
3254;BME280;1639;42.804;23.342;2023-12-28T09:17:11;74923.06;;;-148.52;83.26
3254;BME280;1639;42.804;23.342;2023-12-28T09:19:36;74910.66;;;-148.52;82.78
3254;BME280;1639;42.804;23.342;2023-12-28T09:22:01;74892.03;;;-148.52;82.73
3254;BME280;1639;42.804;23.342;2023-12-28T09:24:27;74879.63;;;-148.52;82.68
3254;BME280;1639;42.804;23.342;2023-12-28T09:26:52;74858.94;;;-148.52;82.21
3254;BME280;1639;42.804;23.342;2023-12-28T09:29:18;74842.38;;;-148.52;82.39
3254;BME280;1639;42.804;23.342;2023-12-28T09:31:45;74838.25;;;-148.52;83.61
3254;BME280;1639;42.804;23.342;2023-12-28T09:34:11;74821.69;;;-148.52;82.35
3254;BME280;1639;42.804;23.342;2023-12-28T09:36:36;74815.47;;;-148.52;81.93
3254;BME280;1639;42.804;23.342;2023-12-28T09:39:01;74801.00;;;-148.52;81.73
3254;BME280;1639;42.804;23.342;2023-12-28T09:41:30;74784.44;;;-148.52;81.66
3254;BME280;1639;42.804;23.342;2023-12-28T09:44:13;74767.88;;;-148.52;81.23
3254;BME280;1639;42.804;23.342;2023-12-28T09:46:42;74749.25;;;-148.52;80.96
3254;BME280;1639;42.804;23.342;2023-12-28T09:49:08;74734.78;;;-148.52;79.80
3254;BME280;1639;42.804;23.342;2023-12-28T09:51:34;74712.03;;;-148.52;79.59
3254;BME280;1639;42.804;23.342;2023-12-28T09:54:00;74689.25;;;-148.52;79.47
3254;BME280;1639;42.804;23.342;2023-12-28T09:56:26;74685.13;;;-148.52;78.82
3254;BME280;1639;42.804;23.342;2023-12-28T09:58:52;74670.63;;;-148.52;78.85
3254;BME280;1639;42.804;23.342;2023-12-28T10:01:18;74656.16;;;-148.52;78.72
3254;BME280;1639;42.804;23.342;2023-12-28T10:03:45;74647.88;;;-148.52;79.12
3254;BME280;1639;42.804;23.342;2023-12-28T10:06:10;74641.66;;;-148.52;78.62
3254;BME280;1639;42.804;23.342;2023-12-28T10:08:35;74629.25;;;-148.52;77.99
3254;BME280;1639;42.804;23.342;2023-12-28T10:11:02;74627.19;;;-148.52;77.75
3254;BME280;1639;42.804;23.342;2023-12-28T10:13:28;74608.56;;;-148.52;77.71
3254;BME280;1639;42.804;23.342;2023-12-28T10:15:57;74594.09;;;-148.52;77.89
3254;BME280;1639;42.804;23.342;2023-12-28T10:18:23;74579.59;;;-148.52;78.64
3254;BME280;1639;42.804;23.342;2023-12-28T10:20:52;74565.13;;;-148.52;79.00
3254;BME280;1639;42.804;23.342;2023-12-28T10:23:18;74538.22;;;-148.52;78.60
3254;BME280;1639;42.804;23.342;2023-12-28T10:25:44;74527.88;;;-148.52;77.53
3254;BME280;1639;42.804;23.342;2023-12-28T10:28:11;74515.47;;;-148.52;76.37
3254;BME280;1639;42.804;23.342;2023-12-28T10:30:38;74494.78;;;-148.52;76.25
3254;BME280;1639;42.804;23.342;2023-12-28T10:33:07;74486.50;;;-148.52;75.51
3254;BME280;1639;42.804;23.342;2023-12-28T10:35:32;74469.94;;;-148.52;75.17
3254;BME280;1639;42.804;23.342;2023-12-28T10:38:00;74453.38;;;-148.52;75.58
3254;BME280;1639;42.804;23.342;2023-12-28T10:40:26;74434.78;;;-148.52;74.94
3254;BME280;1639;42.804;23.342;2023-12-28T10:43:04;74426.50;;;-148.52;75.27
3254;BME280;1639;42.804;23.342;2023-12-28T10:45:34;74412.00;;;-148.52;75.31
3254;BME280;1639;42.804;23.342;2023-12-28T10:48:05;74412.00;;;-148.52;75.14
3254;BME280;1639;42.804;23.342;2023-12-28T10:50:38;74403.72;;;-148.52;74.72
3254;BME280;1639;42.804;23.342;2023-12-28T10:53:26;74385.13;;;-148.52;74.69
3254;BME280;1639;42.804;23.342;2023-12-28T10:58:53;74368.56;;;-148.52;74.35
3254;BME280;1639;42.804;23.342;2023-12-28T11:01:31;74366.50;;;-148.52;74.15
3254;BME280;1639;42.804;23.342;2023-12-28T11:04:23;74343.72;;;-148.52;74.03
3254;BME280;1639;42.804;23.342;2023-12-28T11:06:52;74333.38;;;-148.52;74.04
3254;BME280;1639;42.804;23.342;2023-12-28T11:09:18;74320.97;;;-148.52;73.06
3254;BME280;1639;42.804;23.342;2023-12-28T11:11:46;74316.84;;;-148.52;73.43
3254;BME280;1639;42.804;23.342;2023-12-28T11:14:12;74292.00;;;-148.52;72.66
3254;BME280;1639;42.804;23.342;2023-12-28T11:16:38;74285.81;;;-148.52;72.64
3254;BME280;1639;42.804;23.342;2023-12-28T11:19:06;74269.25;;;-148.52;71.58
3254;BME280;1639;42.804;23.342;2023-12-28T11:21:32;74260.97;;;-148.52;71.34
3254;BME280;1639;42.804;23.342;2023-12-28T11:23:58;74250.63;;;-148.52;71.07
3254;BME280;1639;42.804;23.342;2023-12-28T11:26:24;74248.56;;;-148.52;71.09
3254;BME280;1639;42.804;23.342;2023-12-28T11:28:50;74240.28;;;-148.52;71.35
3254;BME280;1639;42.804;23.342;2023-12-28T11:31:17;74242.38;;;-148.52;70.82
3254;BME280;1639;42.804;23.342;2023-12-28T11:33:50;74234.09;;;-148.52;70.68
3254;BME280;1639;42.804;23.342;2023-12-28T11:36:35;74217.53;;;-148.52;70.67
3254;BME280;1639;42.804;23.342;2023-12-28T11:39:06;74203.06;;;-148.52;70.19
3254;BME280;1639;42.804;23.342;2023-12-28T11:41:32;74194.78;;;-148.52;70.00
3254;BME280;1639;42.804;23.342;2023-12-28T11:44:05;74186.50;;;-148.52;70.15
3254;BME280;1639;42.804;23.342;2023-12-28T11:46:31;74178.22;;;-148.52;69.98
3254;BME280;1639;42.804;23.342;2023-12-28T11:49:06;74149.25;;;-148.52;69.48
3254;BME280;1639;42.804;23.342;2023-12-28T11:51:37;74151.34;;;-148.52;69.34
3254;BME280;1639;42.804;23.342;2023-12-28T11:54:03;74157.53;;;-148.52;69.67
3254;BME280;1639;42.804;23.342;2023-12-28T11:56:30;74155.47;;;-148.52;69.70
3254;BME280;1639;42.804;23.342;2023-12-28T11:58:55;74138.91;;;-148.52;69.19
3254;BME280;1639;42.804;23.342;2023-12-28T12:01:20;74122.38;;;-148.52;69.22
3254;BME280;1639;42.804;23.342;2023-12-28T12:03:46;74109.94;;;-148.52;68.81
3254;BME280;1639;42.804;23.342;2023-12-28T12:06:13;74095.47;;;-148.52;68.40
3254;BME280;1639;42.804;23.342;2023-12-28T12:08:38;74093.41;;;-148.52;68.43
3254;BME280;1639;42.804;23.342;2023-12-28T12:11:06;74074.78;;;-148.52;68.04
3254;BME280;1639;42.804;23.342;2023-12-28T12:13:32;74072.72;;;-148.52;67.99
3254;BME280;1639;42.804;23.342;2023-12-28T12:15:58;74068.59;;;-148.52;67.95
3254;BME280;1639;42.804;23.342;2023-12-28T12:18:24;74056.16;;;-148.52;67.94
3254;BME280;1639;42.804;23.342;2023-12-28T12:20:50;74052.03;;;-148.52;67.77
3254;BME280;1639;42.804;23.342;2023-12-28T12:23:16;74056.16;;;-148.52;67.63
3254;BME280;1639;42.804;23.342;2023-12-28T12:25:41;74029.28;;;-148.52;66.94
3254;BME280;1639;42.804;23.342;2023-12-28T12:28:07;74033.41;;;-148.52;66.80
3254;BME280;1639;42.804;23.342;2023-12-28T12:30:32;74018.94;;;-148.52;66.63
3254;BME280;1639;42.804;23.342;2023-12-28T12:32:58;74023.06;;;-148.52;66.46
3254;BME280;1639;42.804;23.342;2023-12-28T12:35:24;74023.06;;;-148.52;66.50
3254;BME280;1639;42.804;23.342;2023-12-28T12:37:49;74010.66;;;-148.52;66.06
3254;BME280;1639;42.804;23.342;2023-12-28T12:40:17;74002.38;;;-148.52;65.98
3254;BME280;1639;42.804;23.342;2023-12-28T12:42:54;73994.09;;;-148.52;66.04
3254;BME280;1639;42.804;23.342;2023-12-28T12:45:20;73985.81;;;-148.52;65.85
3254;BME280;1639;42.804;23.342;2023-12-28T12:47:47;73979.63;;;-148.52;65.75